Le Grand, CA (95333)

5:11 AM PST on February 11, 2016 (GMT -0800)
Flying-M Ranch | | Change Station
CLOSE
Current Station
Personal Weather Station
Location: Planada, CA
Elevation: 387 ft
Nearby Weather Stations

Elev 387 ft 37.38 °N, 120.33 °W | Updated 14 minutes ago

Clear
Clear
50.5 °F
Feels Like 50.5 °F
N
3.0
Wind Variable Wind from ENE
Gusts 4.0 mph

Today
High -- | Low -- °F
--% Chance of Precip.
Yesterday
High -- | Low -- °F
Precip. -- in
Pressure 30.16 in
Visibility 7.0 miles
Clouds Clear
Dew Point 47 °F
Humidity 88%
Rainfall 0.00 in
Snow Depth Not available.
6:54 AM 5:36 PM
Waxing Crescent, 12% visible
METAR KMCE 111253Z AUTO 09003KT 7SM CLR 07/06 A3016 RMK AO2 SLP212 T00720061
Pressure 30.16 in
Visibility 7.0 miles
Clouds Clear
Dew Point 47 °F
Humidity 88%
Rainfall 0.00 in
Snow Depth Not available.
6:54 AM 5:36 PM
Waxing Crescent, 12% visible
METAR KMCE 111253Z AUTO 09003KT 7SM CLR 07/06 A3016 RMK AO2 SLP212 T00720061

10-Day Weather Forecast

Almanac

Astronomy

Feb. 11, 2016 Rise Set
Actual Time
Civil Twilight
Nautical Twilight
Astronomical Twilight
Moon
Length of Visible Light
Length of Day
Tomorrow will be .
, % of the Moon is Illuminated

Today's Extremes

State Highs State Lows

Community

WunderPhotos

Upload Photos

1,892,040 photos uploaded!

WunderBlog® & News

Nearby

Air Quality

  Air Quality AQ Index Pollutant
Not available.

Snow Depth

Station Depth Elevation

Earthquake Activity

City Distance Mag. Time & Date
Minimum magnitude displayed is 2.5.

Coastal Water Temperatures

Place Temperature

Stations

Nearby Weather Stations

Station Location Temp. Windchill Dew Point Humidity Wind Precip. Elev Updated Type
                   

Watches & Warnings

There are currently no watches in effect.